KLM805 EHAM-LTFM
Flight info
| Callsign | KLM805 |
|---|---|
| Flight time | N/A |
| Altitude | 41000 |
| Route | RENDI DCT EDUPO Z739 MISGO DCT GMH DCT EKSAK DCT SWALM DCT GASKA DCT ENITA DCT ETVIS DCT BUDEX DCT TEKNO DCT OGVUN DCT DUZLA DCT MAVIR DCT TIMUR L606 GASRU DCT RILEX |
| Aircraft | B772/H-SDE2E3FGHIJ5LORVWXY/LB1D1 |
Departure
| Time | 2026-05-07 15:07 |
|---|---|
| Airport | Amsterdam Airport Schiphol (EHAM) |
Arrival
| Time | N/A |
|---|---|
| Airport | İstanbul Airport (LTFM) |
| Time | Latitude | Longitude | Altitude | Speed | Heading |
|---|---|---|---|---|---|
| 2026-05-07 13:45 | 52.31283 | 4.76929 | 3 ft | 0 kts | 304° |
| 2026-05-07 14:54 | 52.31275 | 4.76948 | 4 ft | 2 kts | 308° |
| 2026-05-07 14:54 | 52.31265 | 4.76968 | 4 ft | 2 kts | 313° |
| 2026-05-07 14:55 | 52.31253 | 4.76987 | 5 ft | 2 kts | 322° |
| 2026-05-07 14:55 | 52.31239 | 4.77002 | 7 ft | 2 kts | 338° |
| 2026-05-07 14:55 | 52.31223 | 4.77008 | 5 ft | 2 kts | 6° |
| 2026-05-07 14:55 | 52.31207 | 4.77001 | 6 ft | 2 kts | 28° |
| 2026-05-07 14:56 | 52.31200 | 4.76995 | 5 ft | 1 kts | 32° |
| 2026-05-07 14:57 | 52.31207 | 4.77002 | 6 ft | 4 kts | 32° |
| 2026-05-07 14:57 | 52.31245 | 4.77042 | 5 ft | 9 kts | 33° |
| 2026-05-07 14:57 | 52.31309 | 4.77110 | 3 ft | 13 kts | 33° |
| 2026-05-07 14:57 | 52.31395 | 4.77187 | 3 ft | 12 kts | 11° |
| 2026-05-07 14:58 | 52.31491 | 4.77199 | 3 ft | 16 kts | 2° |
| 2026-05-07 14:58 | 52.31564 | 4.77142 | 3 ft | 9 kts | 290° |
| 2026-05-07 14:58 | 52.31565 | 4.77016 | 3 ft | 13 kts | 266° |
| 2026-05-07 14:58 | 52.31560 | 4.76844 | 3 ft | 17 kts | 267° |
| 2026-05-07 14:59 | 52.31553 | 4.76649 | 3 ft | 17 kts | 266° |
| 2026-05-07 14:59 | 52.31545 | 4.76435 | 4 ft | 20 kts | 267° |
| 2026-05-07 14:59 | 52.31537 | 4.76194 | 4 ft | 23 kts | 267° |
| 2026-05-07 14:59 | 52.31528 | 4.75939 | 4 ft | 23 kts | 266° |
| 2026-05-07 15:00 | 52.31522 | 4.75763 | 3 ft | 14 kts | 266° |
| 2026-05-07 15:00 | 52.31517 | 4.75618 | 3 ft | 14 kts | 266° |
| 2026-05-07 15:00 | 52.31511 | 4.75446 | 3 ft | 16 kts | 266° |
| 2026-05-07 15:00 | 52.31505 | 4.75246 | 3 ft | 19 kts | 266° |
| 2026-05-07 15:01 | 52.31499 | 4.75089 | 3 ft | 12 kts | 266° |
| 2026-05-07 15:01 | 52.31494 | 4.74934 | 3 ft | 15 kts | 267° |
| 2026-05-07 15:01 | 52.31489 | 4.74785 | 3 ft | 11 kts | 267° |
| 2026-05-07 15:01 | 52.31491 | 4.74682 | 3 ft | 6 kts | 297° |
| 2026-05-07 15:02 | 52.31508 | 4.74670 | 4 ft | 1 kts | 354° |
| 2026-05-07 15:02 | 52.31519 | 4.74668 | 4 ft | 2 kts | 353° |
| 2026-05-07 15:02 | 52.31524 | 4.74667 | 3 ft | 0 kts | 354° |
| 2026-05-07 15:02 | 52.31533 | 4.74666 | 3 ft | 3 kts | 355° |
| 2026-05-07 15:03 | 52.31549 | 4.74664 | 3 ft | 0 kts | 356° |
| 2026-05-07 15:03 | 52.31558 | 4.74663 | 3 ft | 4 kts | 356° |
| 2026-05-07 15:04 | 52.31561 | 4.74663 | 3 ft | 0 kts | 356° |
| 2026-05-07 15:05 | 52.31575 | 4.74661 | 4 ft | 7 kts | 356° |
| 2026-05-07 15:05 | 52.31651 | 4.74698 | 5 ft | 16 kts | 45° |
| 2026-05-07 15:05 | 52.31669 | 4.74827 | 3 ft | 0 kts | 86° |
| 2026-05-07 15:07 | 52.31670 | 4.74831 | 3 ft | 5 kts | 86° |
| 2026-05-07 15:07 | 52.31688 | 4.75334 | 1 ft | 88 kts | 86° |
| 2026-05-07 15:07 | 52.31738 | 4.76757 | 3 ft | 161 kts | 87° |
| 2026-05-07 15:07 | 52.31786 | 4.78704 | 736 ft | 170 kts | 85° |
| 2026-05-07 15:08 | 52.31847 | 4.80592 | 1860 ft | 164 kts | 84° |
| 2026-05-07 15:08 | 52.31909 | 4.82474 | 2583 ft | 177 kts | 84° |
| 2026-05-07 15:08 | 52.31955 | 4.83901 | 2806 ft | 200 kts | 85° |
| 2026-05-07 15:08 | 52.31923 | 4.87197 | 3190 ft | 233 kts | 104° |
| 2026-05-07 15:09 | 52.31532 | 4.88849 | 3555 ft | 240 kts | 113° |
| 2026-05-07 15:09 | 52.30811 | 4.91478 | 4063 ft | 256 kts | 113° |
| 2026-05-07 15:09 | 52.30105 | 4.94150 | 4887 ft | 260 kts | 113° |
| 2026-05-07 15:09 | 52.29401 | 4.96887 | 5669 ft | 262 kts | 110° |
| 2026-05-07 15:10 | 52.28846 | 4.99756 | 6083 ft | 265 kts | 106° |
| 2026-05-07 15:10 | 52.28362 | 5.02669 | 6071 ft | 269 kts | 105° |
| 2026-05-07 15:10 | 52.27879 | 5.05620 | 6072 ft | 266 kts | 105° |
| 2026-05-07 15:10 | 52.27387 | 5.08558 | 6113 ft | 267 kts | 106° |
| 2026-05-07 15:11 | 52.26892 | 5.11480 | 6805 ft | 269 kts | 106° |
| 2026-05-07 15:11 | 52.26384 | 5.14433 | 7558 ft | 273 kts | 107° |
| 2026-05-07 15:11 | 52.25863 | 5.17431 | 8233 ft | 279 kts | 107° |
| 2026-05-07 15:11 | 52.25323 | 5.20506 | 8935 ft | 284 kts | 107° |
| 2026-05-07 15:12 | 52.24766 | 5.23664 | 9650 ft | 289 kts | 107° |
| 2026-05-07 15:12 | 52.24082 | 5.26713 | 10175 ft | 292 kts | 121° |
| 2026-05-07 15:12 | 52.22907 | 5.29539 | 10411 ft | 311 kts | 128° |
| 2026-05-07 15:12 | 52.21586 | 5.32456 | 10582 ft | 333 kts | 127° |
| 2026-05-07 15:13 | 52.20163 | 5.35609 | 10925 ft | 351 kts | 127° |
| 2026-05-07 15:13 | 52.18724 | 5.38842 | 11689 ft | 358 kts | 127° |
| 2026-05-07 15:13 | 52.17265 | 5.42158 | 12585 ft | 364 kts | 126° |
| 2026-05-07 15:13 | 52.15775 | 5.45565 | 13597 ft | 369 kts | 126° |
| 2026-05-07 15:14 | 52.14285 | 5.48982 | 14430 ft | 375 kts | 126° |
| 2026-05-07 15:14 | 52.12756 | 5.52482 | 15305 ft | 380 kts | 126° |
| 2026-05-07 15:14 | 52.11233 | 5.55964 | 16130 ft | 385 kts | 126° |
| 2026-05-07 15:14 | 52.09663 | 5.59552 | 16941 ft | 390 kts | 126° |
| 2026-05-07 15:15 | 52.08086 | 5.63145 | 17760 ft | 394 kts | 126° |
| 2026-05-07 15:15 | 52.06477 | 5.66806 | 18510 ft | 399 kts | 126° |
| 2026-05-07 15:15 | 52.04772 | 5.70389 | 19170 ft | 403 kts | 131° |
| 2026-05-07 15:15 | 52.02905 | 5.73840 | 19874 ft | 406 kts | 133° |
| 2026-05-07 15:16 | 52.01005 | 5.77275 | 20563 ft | 409 kts | 133° |
| 2026-05-07 15:16 | 51.99124 | 5.80738 | 21203 ft | 414 kts | 132° |
| 2026-05-07 15:16 | 51.97212 | 5.84305 | 21835 ft | 418 kts | 132° |
| 2026-05-07 15:16 | 51.95314 | 5.87850 | 22460 ft | 422 kts | 132° |
| 2026-05-07 15:17 | 51.93369 | 5.91474 | 23097 ft | 426 kts | 132° |
| 2026-05-07 15:17 | 51.91405 | 5.95128 | 23704 ft | 430 kts | 132° |
| 2026-05-07 15:17 | 51.89437 | 5.98784 | 24220 ft | 433 kts | 132° |
| 2026-05-07 15:17 | 51.87458 | 6.02457 | 24754 ft | 436 kts | 132° |
| 2026-05-07 15:18 | 51.85447 | 6.06180 | 25287 ft | 439 kts | 133° |
| 2026-05-07 15:18 | 51.83427 | 6.09892 | 25800 ft | 442 kts | 133° |
| 2026-05-07 15:18 | 51.81366 | 6.13659 | 26331 ft | 445 kts | 133° |
| 2026-05-07 15:18 | 51.79328 | 6.17381 | 26828 ft | 449 kts | 133° |
| 2026-05-07 15:19 | 51.77264 | 6.21148 | 27319 ft | 452 kts | 133° |
| 2026-05-07 15:19 | 51.75164 | 6.24980 | 27817 ft | 455 kts | 133° |
| 2026-05-07 15:19 | 51.73058 | 6.28824 | 28289 ft | 459 kts | 133° |
| 2026-05-07 15:19 | 51.70945 | 6.32681 | 28752 ft | 462 kts | 133° |
| 2026-05-07 15:20 | 51.68818 | 6.36557 | 29234 ft | 465 kts | 133° |
| 2026-05-07 15:20 | 51.66667 | 6.40474 | 29696 ft | 468 kts | 133° |
| 2026-05-07 15:20 | 51.64487 | 6.44432 | 30132 ft | 472 kts | 133° |
| 2026-05-07 15:20 | 51.62300 | 6.48396 | 30477 ft | 475 kts | 133° |
| 2026-05-07 15:21 | 51.60083 | 6.52405 | 30823 ft | 478 kts | 133° |
| 2026-05-07 15:21 | 51.57898 | 6.56355 | 31167 ft | 480 kts | 133° |
| 2026-05-07 15:21 | 51.55646 | 6.60418 | 31476 ft | 483 kts | 133° |
| 2026-05-07 15:21 | 51.53422 | 6.64426 | 31784 ft | 486 kts | 133° |
| 2026-05-07 15:22 | 51.51143 | 6.68527 | 32077 ft | 488 kts | 133° |
| 2026-05-07 15:22 | 51.48896 | 6.72567 | 32401 ft | 490 kts | 133° |
| 2026-05-07 15:22 | 51.46618 | 6.76659 | 32810 ft | 489 kts | 133° |
| 2026-05-07 15:22 | 51.44360 | 6.80702 | 33229 ft | 488 kts | 132° |
| 2026-05-07 15:23 | 51.42224 | 6.84973 | 33653 ft | 488 kts | 125° |
| 2026-05-07 15:23 | 51.40443 | 6.89527 | 34025 ft | 489 kts | 120° |
| 2026-05-07 15:23 | 51.38906 | 6.94391 | 34374 ft | 489 kts | 114° |
| 2026-05-07 15:23 | 51.37680 | 6.99501 | 34714 ft | 489 kts | 110° |
| 2026-05-07 15:24 | 51.36543 | 7.04626 | 35028 ft | 489 kts | 110° |
| 2026-05-07 15:24 | 51.35426 | 7.09719 | 35369 ft | 489 kts | 110° |
| 2026-05-07 15:24 | 51.34291 | 7.14853 | 35685 ft | 489 kts | 110° |
| 2026-05-07 15:24 | 51.33139 | 7.19998 | 36013 ft | 489 kts | 110° |
| 2026-05-07 15:25 | 51.31987 | 7.25086 | 36336 ft | 488 kts | 110° |
| 2026-05-07 15:25 | 51.30828 | 7.30157 | 36645 ft | 489 kts | 111° |
| 2026-05-07 15:25 | 51.29659 | 7.35244 | 36952 ft | 489 kts | 111° |
| 2026-05-07 15:25 | 51.28477 | 7.40371 | 37257 ft | 489 kts | 111° |
| 2026-05-07 15:26 | 51.27312 | 7.45417 | 37553 ft | 489 kts | 111° |
| 2026-05-07 15:26 | 51.26120 | 7.50569 | 37855 ft | 489 kts | 111° |
| 2026-05-07 15:26 | 51.24945 | 7.55637 | 38141 ft | 489 kts | 111° |
| 2026-05-07 15:26 | 51.23767 | 7.60707 | 38409 ft | 489 kts | 111° |
| 2026-05-07 15:27 | 51.22589 | 7.65767 | 38685 ft | 489 kts | 111° |
| 2026-05-07 15:27 | 51.21395 | 7.70885 | 38903 ft | 489 kts | 111° |
| 2026-05-07 15:27 | 51.20197 | 7.76010 | 39105 ft | 490 kts | 111° |
| 2026-05-07 15:27 | 51.19010 | 7.81077 | 39291 ft | 490 kts | 112° |
| 2026-05-07 15:28 | 51.17827 | 7.86113 | 39503 ft | 490 kts | 112° |
| 2026-05-07 15:28 | 51.16628 | 7.91242 | 39708 ft | 490 kts | 111° |
| 2026-05-07 15:28 | 51.15498 | 7.96334 | 39893 ft | 490 kts | 110° |
| 2026-05-07 15:28 | 51.14401 | 8.01453 | 40083 ft | 491 kts | 110° |
| 2026-05-07 15:29 | 51.13300 | 8.06633 | 40260 ft | 491 kts | 110° |
| 2026-05-07 15:29 | 51.12204 | 8.11770 | 40460 ft | 491 kts | 110° |
| 2026-05-07 15:29 | 51.11094 | 8.16918 | 40633 ft | 491 kts | 110° |
| 2026-05-07 15:29 | 51.09988 | 8.22007 | 40813 ft | 491 kts | 110° |
| 2026-05-07 15:30 | 51.08858 | 8.27173 | 40947 ft | 492 kts | 110° |
| 2026-05-07 15:30 | 51.07735 | 8.32286 | 40989 ft | 494 kts | 111° |
| 2026-05-07 15:30 | 51.05457 | 8.42634 | 41044 ft | 496 kts | 111° |
| 2026-05-07 15:31 | 51.03177 | 8.52902 | 41045 ft | 491 kts | 113° |
| 2026-05-07 15:31 | 51.00141 | 8.62530 | 41054 ft | 485 kts | 123° |
| 2026-05-07 15:32 | 50.96168 | 8.71158 | 41059 ft | 482 kts | 130° |
| 2026-05-07 15:32 | 50.92032 | 8.79453 | 41049 ft | 482 kts | 130° |
| 2026-05-07 15:33 | 50.87871 | 8.87858 | 41055 ft | 484 kts | 129° |
| 2026-05-07 15:33 | 50.83753 | 8.96229 | 41047 ft | 485 kts | 129° |
| 2026-05-07 15:34 | 50.79586 | 9.04685 | 41048 ft | 487 kts | 130° |
| 2026-05-07 15:34 | 50.75424 | 9.13100 | 41050 ft | 489 kts | 130° |
| 2026-05-07 15:35 | 50.71351 | 9.21715 | 41053 ft | 490 kts | 124° |
| 2026-05-07 15:35 | 50.68075 | 9.31120 | 41054 ft | 492 kts | 119° |
| 2026-05-07 15:36 | 50.64919 | 9.40750 | 41053 ft | 493 kts | 119° |
| 2026-05-07 15:36 | 50.61749 | 9.50287 | 41047 ft | 493 kts | 120° |
| 2026-05-07 15:37 | 50.58535 | 9.59821 | 41044 ft | 493 kts | 120° |
| 2026-05-07 15:37 | 50.55326 | 9.69281 | 41048 ft | 493 kts | 120° |
| 2026-05-07 15:38 | 50.52087 | 9.78800 | 41047 ft | 492 kts | 120° |
| 2026-05-07 15:38 | 50.48853 | 9.88274 | 41044 ft | 493 kts | 120° |
| 2026-05-07 15:39 | 50.45619 | 9.97714 | 41048 ft | 492 kts | 120° |
| 2026-05-07 15:39 | 50.42364 | 10.07180 | 41036 ft | 492 kts | 120° |
| 2026-05-07 15:40 | 50.39124 | 10.16572 | 41047 ft | 492 kts | 120° |
| 2026-05-07 15:40 | 50.35866 | 10.25980 | 41034 ft | 492 kts | 120° |
| 2026-05-07 15:41 | 50.32916 | 10.35661 | 41042 ft | 493 kts | 116° |
| 2026-05-07 15:41 | 50.30155 | 10.45497 | 41033 ft | 493 kts | 115° |
| 2026-05-07 15:42 | 50.27394 | 10.55293 | 41043 ft | 493 kts | 116° |
| 2026-05-07 15:42 | 50.24599 | 10.65080 | 41030 ft | 494 kts | 116° |
| 2026-05-07 15:43 | 50.21781 | 10.74869 | 41028 ft | 495 kts | 116° |
| 2026-05-07 15:43 | 50.18958 | 10.84628 | 41031 ft | 495 kts | 116° |
| 2026-05-07 15:44 | 50.16118 | 10.94412 | 41031 ft | 495 kts | 116° |
| 2026-05-07 15:44 | 50.13266 | 11.04196 | 41033 ft | 495 kts | 116° |
| 2026-05-07 15:45 | 50.10373 | 11.13956 | 41029 ft | 494 kts | 119° |
| 2026-05-07 15:45 | 50.07192 | 11.23404 | 41021 ft | 494 kts | 120° |
| 2026-05-07 15:46 | 50.02301 | 11.37514 | 41020 ft | 493 kts | 120° |
| 2026-05-07 15:47 | 49.99083 | 11.46843 | 41025 ft | 493 kts | 120° |
| 2026-05-07 15:47 | 49.95835 | 11.56270 | 41022 ft | 493 kts | 120° |
| 2026-05-07 15:48 | 49.92589 | 11.65668 | 41019 ft | 494 kts | 120° |
| 2026-05-07 15:48 | 49.89350 | 11.75004 | 41015 ft | 494 kts | 120° |
| 2026-05-07 15:49 | 49.86090 | 11.84366 | 41017 ft | 494 kts | 120° |
| 2026-05-07 15:49 | 49.82802 | 11.93770 | 41007 ft | 494 kts | 121° |
| 2026-05-07 15:50 | 49.79527 | 12.03104 | 41009 ft | 494 kts | 121° |
| 2026-05-07 15:50 | 49.76234 | 12.12456 | 41010 ft | 495 kts | 121° |
| 2026-05-07 15:51 | 49.72941 | 12.21773 | 41003 ft | 495 kts | 121° |
| 2026-05-07 15:51 | 49.69682 | 12.30960 | 41005 ft | 494 kts | 121° |
| 2026-05-07 15:52 | 49.66372 | 12.40260 | 41010 ft | 493 kts | 121° |
| 2026-05-07 15:52 | 49.63068 | 12.49507 | 41011 ft | 493 kts | 121° |
| 2026-05-07 15:53 | 49.59756 | 12.58746 | 41014 ft | 492 kts | 121° |
| 2026-05-07 15:53 | 49.56433 | 12.67981 | 41012 ft | 492 kts | 121° |
| 2026-05-07 15:54 | 49.53105 | 12.77196 | 41006 ft | 491 kts | 121° |
| 2026-05-07 15:54 | 49.49776 | 12.86382 | 41000 ft | 491 kts | 122° |
| 2026-05-07 15:55 | 49.46437 | 12.95562 | 40994 ft | 492 kts | 122° |
| 2026-05-07 15:55 | 49.43092 | 13.04727 | 41011 ft | 492 kts | 122° |
| 2026-05-07 15:56 | 49.39754 | 13.13842 | 41004 ft | 492 kts | 122° |
| 2026-05-07 15:56 | 49.36392 | 13.22990 | 41006 ft | 492 kts | 122° |
| 2026-05-07 15:57 | 49.33028 | 13.32112 | 41000 ft | 492 kts | 122° |
| 2026-05-07 15:57 | 49.29643 | 13.41257 | 41005 ft | 493 kts | 122° |
| 2026-05-07 15:58 | 49.26258 | 13.50369 | 40999 ft | 493 kts | 122° |
| 2026-05-07 15:58 | 49.22858 | 13.59492 | 41000 ft | 494 kts | 122° |
| 2026-05-07 15:59 | 49.19449 | 13.68607 | 40995 ft | 494 kts | 123° |
| 2026-05-07 15:59 | 49.16013 | 13.77763 | 40996 ft | 494 kts | 123° |
| 2026-05-07 16:00 | 49.12585 | 13.86865 | 40987 ft | 494 kts | 123° |
| 2026-05-07 16:00 | 49.09150 | 13.95955 | 40982 ft | 494 kts | 123° |
| 2026-05-07 16:01 | 49.05733 | 14.04965 | 40980 ft | 494 kts | 123° |
| 2026-05-07 16:01 | 49.02286 | 14.14024 | 40981 ft | 494 kts | 123° |
| 2026-05-07 16:02 | 48.98837 | 14.23061 | 40984 ft | 493 kts | 123° |
| 2026-05-07 16:02 | 48.95964 | 14.30564 | 40978 ft | 493 kts | 123° |
| 2026-05-07 16:03 | 48.92456 | 14.39518 | 40976 ft | 492 kts | 125° |
| 2026-05-07 16:03 | 48.88821 | 14.48362 | 40971 ft | 492 kts | 126° |
| 2026-05-07 16:04 | 48.85195 | 14.57122 | 40969 ft | 492 kts | 126° |
| 2026-05-07 16:04 | 48.81566 | 14.65916 | 40965 ft | 492 kts | 125° |
| 2026-05-07 16:05 | 48.77934 | 14.74722 | 40966 ft | 492 kts | 126° |
| 2026-05-07 16:05 | 48.74300 | 14.83512 | 40965 ft | 492 kts | 126° |
| 2026-05-07 16:06 | 48.70646 | 14.92318 | 40961 ft | 492 kts | 126° |
| 2026-05-07 16:06 | 48.67023 | 15.01019 | 40957 ft | 492 kts | 126° |
| 2026-05-07 16:07 | 48.63360 | 15.09787 | 40971 ft | 493 kts | 126° |
| 2026-05-07 16:07 | 48.59679 | 15.18570 | 40967 ft | 493 kts | 126° |
| 2026-05-07 16:08 | 48.56007 | 15.27300 | 40953 ft | 493 kts | 126° |
| 2026-05-07 16:08 | 48.52345 | 15.35982 | 40956 ft | 493 kts | 126° |
| 2026-05-07 16:09 | 48.48647 | 15.44719 | 40954 ft | 493 kts | 126° |
| 2026-05-07 16:09 | 48.44955 | 15.53415 | 40953 ft | 493 kts | 126° |
| 2026-05-07 16:10 | 48.41247 | 15.62116 | 40954 ft | 493 kts | 126° |
| 2026-05-07 16:10 | 48.37541 | 15.70789 | 40955 ft | 493 kts | 126° |
| 2026-05-07 16:11 | 48.33833 | 15.79439 | 40950 ft | 492 kts | 127° |
| 2026-05-07 16:11 | 48.30113 | 15.88087 | 40956 ft | 492 kts | 127° |
| 2026-05-07 16:12 | 48.26414 | 15.96660 | 40954 ft | 493 kts | 127° |
| 2026-05-07 16:12 | 48.22659 | 16.05335 | 40969 ft | 493 kts | 127° |
| 2026-05-07 16:13 | 48.18927 | 16.13929 | 40963 ft | 493 kts | 127° |
| 2026-05-07 16:13 | 48.15184 | 16.22521 | 40963 ft | 493 kts | 127° |
| 2026-05-07 16:14 | 48.11445 | 16.31076 | 40966 ft | 493 kts | 127° |
| 2026-05-07 16:14 | 48.07669 | 16.39691 | 40962 ft | 492 kts | 127° |
| 2026-05-07 16:15 | 48.03922 | 16.48211 | 40965 ft | 492 kts | 127° |
| 2026-05-07 16:15 | 48.00144 | 16.56774 | 40965 ft | 492 kts | 127° |
| 2026-05-07 16:16 | 47.96387 | 16.65263 | 40968 ft | 492 kts | 127° |
| 2026-05-07 16:16 | 47.92594 | 16.73808 | 40963 ft | 493 kts | 127° |
| 2026-05-07 16:17 | 47.88818 | 16.82288 | 40964 ft | 492 kts | 127° |
| 2026-05-07 16:17 | 47.85009 | 16.90817 | 40961 ft | 492 kts | 127° |
| 2026-05-07 16:18 | 47.81229 | 16.99251 | 40961 ft | 492 kts | 128° |